createdAt,value
2022-08-18T00:01:23.059Z,16.81
2022-08-18T00:03:57.023Z,16.73
2022-08-18T00:06:28.338Z,16.71
2022-08-18T00:08:55.256Z,16.68
2022-08-18T00:11:21.877Z,16.66
2022-08-18T00:13:48.300Z,16.63
2022-08-18T00:16:14.756Z,16.60
2022-08-18T00:18:41.319Z,16.58
2022-08-18T00:21:07.874Z,16.54
2022-08-18T00:23:34.278Z,16.52
2022-08-18T00:26:04.613Z,16.47
2022-08-18T00:28:31.093Z,16.45
2022-08-18T00:30:57.583Z,16.41
2022-08-18T00:33:24.045Z,16.38
2022-08-18T00:35:50.539Z,16.33
2022-08-18T00:38:25.307Z,16.30
2022-08-18T00:40:52.877Z,16.26
2022-08-18T00:43:45.603Z,16.23
2022-08-18T00:46:15.445Z,16.26
2022-08-18T00:48:48.878Z,16.28
2022-08-18T00:51:18.896Z,16.28
2022-08-18T00:53:50.384Z,16.26
2022-08-18T00:56:22.294Z,16.32
2022-08-18T00:59:00.314Z,16.30
2022-08-18T01:01:29.032Z,16.28
2022-08-18T01:03:58.620Z,16.29
2022-08-18T01:06:54.345Z,16.26
2022-08-18T01:09:20.765Z,16.19
2022-08-18T01:11:47.328Z,16.20
2022-08-18T01:14:18.338Z,16.20
2022-08-18T01:17:06.972Z,16.17
2022-08-18T01:19:52.359Z,16.16
2022-08-18T01:22:21.649Z,16.16
2022-08-18T01:25:08.302Z,16.14
2022-08-18T01:27:34.734Z,16.11
2022-08-18T01:30:07.203Z,16.10
2022-08-18T01:32:33.609Z,16.07
2022-08-18T01:35:00.131Z,16.04
2022-08-18T01:37:26.569Z,16.01
2022-08-18T01:41:23.889Z,15.98
2022-08-18T01:42:39.815Z,15.95
2022-08-18T01:45:07.923Z,15.92
2022-08-18T01:47:47.941Z,15.90
2022-08-18T01:50:15.325Z,15.88
2022-08-18T01:52:41.774Z,15.88
2022-08-18T01:55:08.390Z,15.86
2022-08-18T01:57:38.582Z,15.83
2022-08-18T02:00:06.198Z,15.84
2022-08-18T02:02:33.818Z,15.84
2022-08-18T02:05:02.746Z,15.83
2022-08-18T02:07:36.204Z,15.84
2022-08-18T02:10:03.625Z,15.79
2022-08-18T02:12:30.583Z,15.80
2022-08-18T02:14:57.198Z,15.80
2022-08-18T02:17:23.885Z,15.83
2022-08-18T02:19:50.346Z,15.80
2022-08-18T02:22:18.558Z,15.74
2022-08-18T02:24:45.025Z,15.68
2022-08-18T02:27:12.342Z,15.70
2022-08-18T02:29:39.066Z,15.70
2022-08-18T02:32:06.151Z,15.68
2022-08-18T02:34:32.673Z,15.69
2022-08-18T02:36:59.730Z,15.70
2022-08-18T02:39:26.187Z,15.71
2022-08-18T02:41:53.498Z,15.71
2022-08-18T02:44:20.018Z,15.70
2022-08-18T02:46:46.470Z,15.70
2022-08-18T02:49:13.086Z,15.70
2022-08-18T02:51:39.703Z,15.70
2022-08-18T02:54:11.398Z,15.70
2022-08-18T02:56:41.219Z,15.68
2022-08-18T02:59:13.880Z,15.64
2022-08-18T03:01:42.189Z,15.65
2022-08-18T03:04:09.715Z,15.69
2022-08-18T03:06:36.968Z,15.70
2022-08-18T03:09:04.523Z,15.70
2022-08-18T03:11:30.998Z,15.73
2022-08-18T03:13:57.767Z,15.75
2022-08-18T03:16:27.099Z,15.73
2022-08-18T03:18:53.722Z,15.74
2022-08-18T03:21:22.039Z,15.77
2022-08-18T03:24:00.501Z,15.78
2022-08-18T03:26:29.976Z,15.78
2022-08-18T03:28:56.772Z,15.80
2022-08-18T03:31:25.011Z,15.82
2022-08-18T03:33:54.752Z,15.83
2022-08-18T03:36:22.635Z,15.86
2022-08-18T03:38:50.918Z,15.87
2022-08-18T03:41:59.171Z,15.89
2022-08-18T03:44:09.908Z,15.86
2022-08-18T03:46:36.454Z,15.87
2022-08-18T03:49:02.901Z,15.88
2022-08-18T03:51:32.099Z,15.92
2022-08-18T03:54:00.351Z,15.94
2022-08-18T03:56:33.574Z,15.96
2022-08-18T03:59:11.326Z,15.95
2022-08-18T04:01:41.936Z,16.01
2022-08-18T04:04:10.058Z,16.01
2022-08-18T04:06:41.470Z,15.98
2022-08-18T04:09:09.713Z,15.98
2022-08-18T04:11:37.407Z,15.98
2022-08-18T04:14:05.052Z,16.02
2022-08-18T04:16:32.468Z,16.06
2022-08-18T04:19:03.172Z,16.07
2022-08-18T04:21:34.142Z,16.08
2022-08-18T04:24:05.006Z,16.09
2022-08-18T04:26:32.743Z,16.10
2022-08-18T04:29:01.161Z,16.11
2022-08-18T04:31:29.527Z,16.14
2022-08-18T04:33:56.870Z,16.16
2022-08-18T04:36:23.899Z,16.18
2022-08-18T04:38:50.518Z,16.20
2022-08-18T04:41:17.600Z,16.23
2022-08-18T04:43:44.309Z,16.23
2022-08-18T04:46:11.417Z,16.26
2022-08-18T04:48:39.114Z,16.28
2022-08-18T04:51:06.772Z,16.30
2022-08-18T04:53:45.683Z,16.32
2022-08-18T04:56:26.129Z,16.35
2022-08-18T04:58:59.965Z,16.35
2022-08-18T05:01:27.979Z,16.38
2022-08-18T05:03:54.809Z,16.39
2022-08-18T05:06:25.228Z,16.39
2022-08-18T05:08:56.032Z,16.40
2022-08-18T05:11:23.511Z,16.44
2022-08-18T05:13:51.466Z,16.47
2022-08-18T05:16:27.496Z,16.45
2022-08-18T05:18:54.712Z,16.47
2022-08-18T05:21:22.505Z,16.45
2022-08-18T05:23:51.197Z,16.45
2022-08-18T05:26:18.505Z,16.47
2022-08-18T05:28:45.789Z,16.48
2022-08-18T05:31:18.994Z,16.54
2022-08-18T05:33:46.051Z,16.63
2022-08-18T05:36:15.207Z,16.69
2022-08-18T05:39:03.288Z,16.74
2022-08-18T05:41:41.667Z,16.76
2022-08-18T05:44:09.841Z,16.84
2022-08-18T05:46:56.705Z,16.89
2022-08-18T05:49:25.603Z,16.97
2022-08-18T05:51:59.964Z,17.03
2022-08-18T05:54:47.518Z,17.12
2022-08-18T05:57:17.349Z,17.13
2022-08-18T05:59:44.376Z,17.21
2022-08-18T06:02:20.454Z,17.26
2022-08-18T06:04:52.207Z,17.33
2022-08-18T06:07:22.951Z,17.43
2022-08-18T06:09:51.634Z,17.51
2022-08-18T06:12:37.380Z,17.55
2022-08-18T06:15:24.202Z,17.65
2022-08-18T06:17:53.722Z,17.75
2022-08-18T06:20:22.922Z,17.85
2022-08-18T06:23:07.875Z,17.93
2022-08-18T06:25:47.252Z,18.02
2022-08-18T06:28:15.979Z,18.13
2022-08-18T06:30:42.481Z,18.25
2022-08-18T06:33:29.802Z,18.33
2022-08-18T06:36:02.551Z,18.46
2022-08-18T06:38:42.614Z,18.57
2022-08-18T06:41:41.638Z,18.65
2022-08-18T06:44:09.168Z,18.78
2022-08-18T06:46:41.518Z,18.82
2022-08-18T06:49:31.412Z,18.81
2022-08-18T06:51:57.873Z,18.92
2022-08-18T06:54:24.305Z,19.01
2022-08-18T06:56:53.000Z,19.04
2022-08-18T06:59:21.886Z,19.13
2022-08-18T07:01:51.104Z,19.23
2022-08-18T07:04:35.682Z,19.34
2022-08-18T07:07:15.004Z,19.36
2022-08-18T07:09:41.512Z,19.45
2022-08-18T07:12:09.103Z,19.52
2022-08-18T07:14:43.280Z,19.62
2022-08-18T07:17:14.742Z,19.71
2022-08-18T07:19:41.481Z,19.82
2022-08-18T07:22:07.977Z,19.93
2022-08-18T07:24:39.310Z,20.00
2022-08-18T07:27:11.082Z,20.10
2022-08-18T07:29:39.949Z,20.18
2022-08-18T07:32:20.822Z,20.27
2022-08-18T07:34:53.326Z,20.44
2022-08-18T07:37:28.458Z,20.49
2022-08-18T07:39:59.888Z,20.54
2022-08-18T07:42:54.426Z,20.55
2022-08-18T07:45:24.032Z,20.61
2022-08-18T07:48:27.470Z,20.64
2022-08-18T07:50:58.352Z,20.79
2022-08-18T07:53:38.461Z,20.85
2022-08-18T07:56:12.285Z,20.87
2022-08-18T07:58:48.826Z,20.92
2022-08-18T08:01:34.084Z,21.00
2022-08-18T08:04:09.630Z,20.94
2022-08-18T08:07:24.905Z,20.98
2022-08-18T08:10:27.367Z,20.98
2022-08-18T08:13:31.276Z,21.02
2022-08-18T08:16:16.352Z,20.97
2022-08-18T08:19:01.281Z,20.93
2022-08-18T08:21:31.927Z,20.91
2022-08-18T08:24:01.349Z,20.94
2022-08-18T08:26:46.649Z,20.84
2022-08-18T08:29:37.879Z,20.72
2022-08-18T08:32:06.213Z,20.64
2022-08-18T08:34:35.413Z,20.63
2022-08-18T08:37:03.897Z,20.63
2022-08-18T08:39:57.907Z,20.58
2022-08-18T08:42:44.341Z,20.45
2022-08-18T08:45:16.522Z,20.25
2022-08-18T08:47:52.018Z,20.33
2022-08-18T08:50:21.990Z,20.28
2022-08-18T08:52:48.405Z,20.23
2022-08-18T08:55:17.797Z,20.24
2022-08-18T08:57:52.270Z,20.26
2022-08-18T09:00:19.011Z,20.27
2022-08-18T09:02:48.155Z,20.09
2022-08-18T09:05:18.381Z,20.03
2022-08-18T09:07:45.846Z,19.92
2022-08-18T09:10:21.152Z,19.89
2022-08-18T09:12:53.921Z,19.86
2022-08-18T09:15:41.158Z,19.90
2022-08-18T09:18:23.209Z,19.86
2022-08-18T09:21:13.546Z,19.79
2022-08-18T09:23:46.277Z,19.88
2022-08-18T09:26:27.692Z,19.93
2022-08-18T09:28:59.158Z,19.91
2022-08-18T09:31:26.774Z,19.80
2022-08-18T09:34:17.132Z,19.79
2022-08-18T09:36:43.650Z,19.86
2022-08-18T09:39:31.926Z,19.90
2022-08-18T09:42:00.650Z,19.90
2022-08-18T09:44:48.047Z,19.94
2022-08-18T09:47:20.715Z,19.99
2022-08-18T09:52:37.546Z,19.95
2022-08-18T09:55:16.324Z,19.92
2022-08-18T09:57:44.732Z,19.94
2022-08-18T10:00:12.914Z,19.93
2022-08-18T10:02:40.381Z,20.00
2022-08-18T10:05:16.803Z,19.99
2022-08-18T10:07:44.429Z,20.06
2022-08-18T10:13:03.145Z,20.10
2022-08-18T10:15:35.816Z,20.23
2022-08-18T10:18:21.459Z,20.23
2022-08-18T10:20:50.708Z,20.33
2022-08-18T10:23:42.750Z,20.37
2022-08-18T10:26:34.083Z,20.50
2022-08-18T10:29:02.368Z,20.63
2022-08-18T10:31:29.483Z,20.79
2022-08-18T10:33:58.189Z,20.58
2022-08-18T10:36:42.057Z,20.61
2022-08-18T10:39:11.626Z,20.80
2022-08-18T10:41:47.247Z,20.80
2022-08-18T10:47:02.173Z,21.18
2022-08-18T10:49:32.009Z,21.43
2022-08-18T10:52:00.980Z,21.62
2022-08-18T10:54:50.770Z,21.71
2022-08-18T10:57:21.471Z,21.74
2022-08-18T11:00:07.450Z,21.64
2022-08-18T11:02:44.839Z,21.79
2022-08-18T11:05:18.239Z,21.78
2022-08-18T11:07:53.412Z,21.78
2022-08-18T11:10:50.615Z,21.83
2022-08-18T11:13:26.092Z,21.71
2022-08-18T11:16:00.584Z,21.97
2022-08-18T11:18:36.458Z,22.04
2022-08-18T11:21:23.844Z,22.21
2022-08-18T11:24:02.514Z,22.28
2022-08-18T11:26:30.385Z,22.50
2022-08-18T11:28:56.894Z,22.85
2022-08-18T11:31:24.472Z,22.85
2022-08-18T11:33:51.535Z,22.83
2022-08-18T11:36:18.149Z,22.95
2022-08-18T11:38:57.618Z,23.00
2022-08-18T11:41:33.204Z,23.74
2022-08-18T11:44:17.309Z,23.93
2022-08-18T11:46:47.539Z,23.86
2022-08-18T11:49:24.343Z,24.08
2022-08-18T11:51:57.686Z,24.63
2022-08-18T11:54:35.837Z,24.92
2022-08-18T11:57:21.111Z,24.75
2022-08-18T11:59:54.548Z,24.95
2022-08-18T12:02:27.176Z,24.75
2022-08-18T12:05:02.927Z,24.88
2022-08-18T12:07:35.401Z,24.87
2022-08-18T12:13:07.104Z,24.99
2022-08-18T12:18:28.714Z,24.68
2022-08-18T12:20:59.462Z,24.47
2022-08-18T12:23:38.617Z,24.43
2022-08-18T12:26:27.003Z,24.47
2022-08-18T12:31:50.237Z,24.29
2022-08-18T12:34:17.773Z,24.26
2022-08-18T12:36:51.984Z,24.79
2022-08-18T12:39:18.694Z,25.28
2022-08-18T12:41:47.055Z,24.96
2022-08-18T12:44:13.744Z,25.10
2022-08-18T12:49:27.286Z,26.01
2022-08-18T12:51:55.968Z,26.17
2022-08-18T12:54:22.508Z,26.33
2022-08-18T12:56:54.059Z,26.03
2022-08-18T12:59:20.531Z,25.71
2022-08-18T13:01:50.959Z,26.41
2022-08-18T13:04:26.953Z,26.34
2022-08-18T13:07:00.305Z,26.57
2022-08-18T13:09:34.797Z,26.62
2022-08-18T13:12:16.132Z,26.72
2022-08-18T13:14:43.429Z,26.15
2022-08-18T13:17:15.316Z,26.35
2022-08-18T13:19:57.059Z,26.32
2022-08-18T13:22:24.232Z,26.04
2022-08-18T13:24:59.794Z,26.15
2022-08-18T13:27:27.120Z,25.87
2022-08-18T13:29:59.432Z,25.66
2022-08-18T13:32:26.092Z,25.34
2022-08-18T13:34:54.766Z,25.35
2022-08-18T13:37:26.536Z,25.12
2022-08-18T13:39:54.607Z,25.07
2022-08-18T13:42:28.407Z,25.29
2022-08-18T13:45:25.243Z,25.47
2022-08-18T13:47:51.174Z,25.86
2022-08-18T13:50:19.596Z,26.16
2022-08-18T13:52:46.496Z,26.01
2022-08-18T13:55:16.830Z,25.83
2022-08-18T13:57:50.351Z,25.68
2022-08-18T14:00:29.685Z,25.80
2022-08-18T14:02:58.874Z,26.01
2022-08-18T14:05:50.791Z,26.01
2022-08-18T14:08:18.851Z,26.02
2022-08-18T14:10:49.097Z,25.89
2022-08-18T14:13:20.774Z,25.32
2022-08-18T14:15:53.749Z,25.46
2022-08-18T14:18:21.676Z,24.96
2022-08-18T14:21:14.296Z,25.04
2022-08-18T14:23:59.554Z,25.53
2022-08-18T14:26:45.147Z,25.92
2022-08-18T14:29:11.665Z,25.90
2022-08-18T14:31:43.216Z,26.09
2022-08-18T14:34:11.622Z,26.11
2022-08-18T14:36:38.361Z,26.28
2022-08-18T14:39:06.119Z,26.18
2022-08-18T14:41:35.628Z,25.85
2022-08-18T14:44:12.274Z,25.89
2022-08-18T14:46:40.838Z,26.00
2022-08-18T14:49:08.090Z,25.95
2022-08-18T14:51:34.642Z,26.11
2022-08-18T14:54:01.633Z,26.04
2022-08-18T14:56:29.473Z,26.01
2022-08-18T14:58:56.417Z,25.84
2022-08-18T15:01:24.504Z,25.58
2022-08-18T15:03:51.169Z,25.51
2022-08-18T15:06:23.162Z,25.50
2022-08-18T15:08:54.021Z,25.59
2022-08-18T15:11:23.893Z,25.45
2022-08-18T15:13:50.651Z,25.62
2022-08-18T15:16:17.734Z,25.50
2022-08-18T15:18:45.076Z,25.39
2022-08-18T15:21:35.315Z,25.35
2022-08-18T15:24:24.331Z,25.31
2022-08-18T15:26:56.847Z,24.92
2022-08-18T15:29:29.968Z,25.02
2022-08-18T15:32:02.323Z,24.85
2022-08-18T15:34:32.818Z,24.82
2022-08-18T15:37:14.085Z,24.79
2022-08-18T15:39:40.981Z,24.62
2022-08-18T15:42:10.048Z,24.59
2022-08-18T15:44:37.133Z,24.65
2022-08-18T15:47:05.299Z,24.47
2022-08-18T15:49:35.916Z,24.30
2022-08-18T15:52:02.389Z,24.32
2022-08-18T15:54:28.926Z,24.35
2022-08-18T15:56:58.399Z,24.34
2022-08-18T15:59:27.014Z,24.36
2022-08-18T16:02:01.081Z,24.31
2022-08-18T16:04:27.561Z,24.12
2022-08-18T16:06:55.948Z,24.13
2022-08-18T16:09:22.409Z,24.05
2022-08-18T16:11:48.898Z,24.05
2022-08-18T16:14:15.466Z,23.82
2022-08-18T16:16:42.073Z,23.67
2022-08-18T16:19:08.523Z,23.64
2022-08-18T16:21:39.671Z,23.60
2022-08-18T16:24:07.001Z,23.56
2022-08-18T16:26:33.531Z,23.37
2022-08-18T16:29:01.740Z,23.34
2022-08-18T16:31:28.522Z,23.35
2022-08-18T16:33:56.174Z,23.32
2022-08-18T16:36:25.457Z,23.21
2022-08-18T16:38:53.376Z,23.11
2022-08-18T16:41:20.615Z,23.07
2022-08-18T16:43:47.423Z,23.07
2022-08-18T16:46:15.944Z,23.06
2022-08-18T16:48:45.791Z,22.97
2022-08-18T16:51:13.579Z,22.98
2022-08-18T16:53:40.566Z,22.96
2022-08-18T16:56:11.154Z,22.90
2022-08-18T16:58:56.400Z,22.79
2022-08-18T17:01:48.635Z,22.89
2022-08-18T17:04:20.532Z,22.91
2022-08-18T17:06:47.921Z,22.91
2022-08-18T17:09:14.902Z,22.85
2022-08-18T17:11:51.372Z,22.82
2022-08-18T17:14:19.755Z,22.75
2022-08-18T17:16:46.717Z,22.78
2022-08-18T17:19:13.380Z,22.72
2022-08-18T17:21:40.958Z,22.60
2022-08-18T17:24:09.478Z,22.56
2022-08-18T17:26:43.947Z,22.53
2022-08-18T17:29:17.023Z,22.46
2022-08-18T17:31:49.942Z,22.57
2022-08-18T17:34:17.267Z,22.60
2022-08-18T17:36:52.902Z,22.53
2022-08-18T17:39:23.098Z,22.50
2022-08-18T17:42:08.227Z,22.49
2022-08-18T17:44:35.121Z,22.45
2022-08-18T17:47:35.931Z,22.46
2022-08-18T17:50:26.754Z,22.41
2022-08-18T17:52:59.753Z,22.40
2022-08-18T17:55:28.811Z,22.37
2022-08-18T17:58:06.836Z,22.33
2022-08-18T18:00:33.338Z,22.29
2022-08-18T18:03:00.320Z,22.29
2022-08-18T18:05:32.258Z,22.30
2022-08-18T18:07:59.890Z,22.14
2022-08-18T18:11:02.423Z,22.14
2022-08-18T18:13:33.336Z,22.13
2022-08-18T18:16:19.838Z,22.01
2022-08-18T18:18:46.691Z,21.96
2022-08-18T18:21:16.227Z,21.86
2022-08-18T18:23:45.117Z,21.86
2022-08-18T18:26:26.034Z,21.81
2022-08-18T18:29:12.920Z,21.78
2022-08-18T18:31:40.116Z,21.73
2022-08-18T18:34:23.426Z,21.66
2022-08-18T18:36:55.073Z,21.60
2022-08-18T18:39:23.454Z,21.56
2022-08-18T18:42:15.377Z,21.56
2022-08-18T18:44:49.135Z,21.56
2022-08-18T18:47:30.440Z,21.52
2022-08-18T18:50:01.794Z,21.48
2022-08-18T18:52:46.275Z,21.44
2022-08-18T18:55:18.065Z,21.39
2022-08-18T18:57:49.474Z,21.32
2022-08-18T19:00:21.060Z,21.31
2022-08-18T19:03:04.519Z,21.26
2022-08-18T19:05:43.475Z,21.24
2022-08-18T19:08:12.666Z,21.18
2022-08-18T19:10:49.519Z,21.11
2022-08-18T19:13:33.054Z,21.07
2022-08-18T19:16:23.787Z,21.06
2022-08-18T19:19:35.094Z,21.05
2022-08-18T19:22:04.169Z,20.99
2022-08-18T19:24:29.215Z,20.94
2022-08-18T19:26:59.128Z,20.89
2022-08-18T19:29:29.407Z,20.82
2022-08-18T19:32:01.254Z,20.77
2022-08-18T19:34:31.268Z,20.71
2022-08-18T19:37:18.328Z,20.71
2022-08-18T19:40:09.983Z,20.69
2022-08-18T19:42:49.512Z,20.64
2022-08-18T19:45:31.916Z,20.61
2022-08-18T19:48:26.133Z,20.61
2022-08-18T19:50:55.615Z,20.59
2022-08-18T19:53:34.163Z,20.57
2022-08-18T19:56:10.744Z,20.52
2022-08-18T19:58:37.269Z,20.50
2022-08-18T20:01:20.997Z,20.46
2022-08-18T20:04:11.169Z,20.42
2022-08-18T20:06:40.480Z,20.39
2022-08-18T20:09:26.508Z,20.37
2022-08-18T20:12:06.404Z,20.34
2022-08-18T20:14:35.734Z,20.31
2022-08-18T20:17:05.083Z,20.28
2022-08-18T20:19:57.838Z,20.25
2022-08-18T20:22:25.071Z,20.25
2022-08-18T20:24:53.615Z,20.20
2022-08-18T20:27:35.990Z,20.18
2022-08-18T20:30:21.197Z,20.13
2022-08-18T20:33:07.002Z,20.12
2022-08-18T20:35:38.475Z,20.09
2022-08-18T20:38:13.166Z,20.08
2022-08-18T20:40:45.311Z,20.06
2022-08-18T20:43:32.358Z,20.02
2022-08-18T20:46:17.366Z,19.99
2022-08-18T20:48:46.771Z,19.93
2022-08-18T20:51:15.225Z,19.88
2022-08-18T20:54:01.419Z,19.83
2022-08-18T20:56:43.574Z,19.80
2022-08-18T20:59:20.313Z,19.77
2022-08-18T21:01:57.729Z,19.74
2022-08-18T21:04:57.837Z,19.74
2022-08-18T21:07:36.474Z,19.70
2022-08-18T21:10:18.058Z,19.63
2022-08-18T21:12:53.867Z,19.59
2022-08-18T21:15:21.491Z,19.53
2022-08-18T21:17:57.065Z,19.50
2022-08-18T21:20:23.692Z,19.45
2022-08-18T21:22:53.686Z,19.42
2022-08-18T21:25:20.265Z,19.41
2022-08-18T21:27:46.903Z,19.39
2022-08-18T21:30:16.281Z,19.38
2022-08-18T21:32:46.860Z,19.37
2022-08-18T21:35:27.107Z,19.37
2022-08-18T21:38:12.367Z,19.36
2022-08-18T21:40:41.217Z,19.36
2022-08-18T21:43:09.055Z,19.36
2022-08-18T21:45:47.408Z,19.39
2022-08-18T21:48:14.767Z,19.42
2022-08-18T21:50:48.158Z,19.42
2022-08-18T21:53:18.981Z,19.44
2022-08-18T21:55:46.511Z,19.40
2022-08-18T21:58:16.762Z,19.41
2022-08-18T22:00:43.358Z,19.42
2022-08-18T22:03:24.100Z,19.42
2022-08-18T22:06:09.352Z,19.35
2022-08-18T22:08:46.578Z,19.39
2022-08-18T22:12:00.589Z,19.38
2022-08-18T22:14:28.177Z,19.37
2022-08-18T22:17:24.319Z,19.36
2022-08-18T22:19:51.060Z,19.35
2022-08-18T22:22:36.814Z,19.34
2022-08-18T22:25:04.305Z,19.31
2022-08-18T22:27:30.885Z,19.28
2022-08-18T22:30:04.071Z,19.27
2022-08-18T22:32:35.740Z,19.25
2022-08-18T22:35:02.513Z,19.20
2022-08-18T22:37:32.526Z,19.18
2022-08-18T22:40:04.319Z,19.16
2022-08-18T22:42:32.922Z,19.15
2022-08-18T22:45:04.680Z,19.13
2022-08-18T22:47:34.176Z,19.08
2022-08-18T22:50:11.180Z,19.06
2022-08-18T22:52:40.527Z,19.05
2022-08-18T22:55:08.782Z,19.03
2022-08-18T22:57:37.563Z,18.99
2022-08-18T23:00:07.857Z,18.96
2022-08-18T23:02:36.699Z,18.93
2022-08-18T23:05:03.464Z,18.89
2022-08-18T23:07:31.498Z,18.85
2022-08-18T23:09:58.994Z,18.81
2022-08-18T23:12:25.772Z,18.78
2022-08-18T23:14:53.428Z,18.77
2022-08-18T23:17:21.483Z,18.75
2022-08-18T23:19:48.285Z,18.72
2022-08-18T23:22:19.263Z,18.69
2022-08-18T23:24:45.743Z,18.64
2022-08-18T23:27:12.133Z,18.62
2022-08-18T23:29:39.836Z,18.58
2022-08-18T23:32:06.934Z,18.57
2022-08-18T23:34:33.697Z,18.56
2022-08-18T23:37:03.705Z,18.55
2022-08-18T23:39:31.434Z,18.52
2022-08-18T23:41:58.449Z,18.49
2022-08-18T23:44:27.588Z,18.46
2022-08-18T23:46:54.920Z,18.45
2022-08-18T23:49:21.459Z,18.46
2022-08-18T23:51:49.565Z,18.46
2022-08-18T23:54:18.313Z,18.42
2022-08-18T23:56:45.264Z,18.40
2022-08-18T23:59:12.392Z,18.42
